Time;durP1;ratioP1;P1;durP2;ratioP2;P2;SDS_P1;SDS_P2;PMS_P1;PMS_P2;Temp;Humidity;BMP_temperature;BMP_pressure;BME280_temperature;BME280_humidity;BME280_pressure;Samples;Min_cycle;Max_cycle;Signal;HPM_P1;HPM_P2
2022/09/16 00:01:19;;;;;;;9.52;3.90;;;;;;;18.94;69.81;99676.03;5036775;28;20037;-60
2022/09/16 00:03:45;;;;;;;3.63;3.25;;;;;;;18.97;69.93;99622.75;5027770;28;20189;-60
2022/09/16 00:06:21;;;;;;;4.40;3.70;;;;;;;18.98;69.75;99631.56;5036233;28;20041;-60
2022/09/16 00:08:48;;;;;;;4.20;3.00;;;;;;;18.91;69.94;99619.97;5044276;28;20038;-60
2022/09/16 00:11:18;;;;;;;6.90;3.88;;;;;;;18.91;70.01;99618.16;5039188;28;20398;-60
2022/09/16 00:13:47;;;;;;;6.38;3.75;;;;;;;18.93;69.68;99618.00;5030963;28;20380;-59
2022/09/16 00:16:20;;;;;;;3.58;3.25;;;;;;;18.92;70.10;99614.50;5038086;28;20037;-60
2022/09/16 00:18:46;;;;;;;3.83;3.30;;;;;;;18.91;69.89;99612.88;5045723;28;20030;-60
2022/09/16 00:21:13;;;;;;;3.42;2.53;;;;;;;18.92;69.90;99609.22;5033939;28;20495;-60
2022/09/16 00:23:39;;;;;;;7.93;3.70;;;;;;;18.96;70.10;99621.13;5020676;28;20037;-60
2022/09/16 00:26:05;;;;;;;3.97;3.63;;;;;;;18.92;70.06;99625.09;5019087;28;20033;-60
2022/09/16 00:28:31;;;;;;;4.55;4.05;;;;;;;18.94;70.08;99617.00;5045313;28;20048;-60
2022/09/16 00:31:01;;;;;;;3.17;2.88;;;;;;;18.95;69.89;99622.13;5044546;28;20479;-60
2022/09/16 00:33:28;;;;;;;6.72;3.08;;;;;;;18.95;70.02;99622.13;5031199;28;20376;-60
2022/09/16 00:36:09;;;;;;;5.15;3.35;;;;;;;18.95;69.80;99619.47;5030289;28;20380;-60
2022/09/16 00:38:36;;;;;;;8.10;3.40;;;;;;;18.94;70.09;99620.44;5024879;28;20037;-60
2022/09/16 00:41:03;;;;;;;4.47;3.22;;;;;;;18.91;69.80;99618.16;5039376;28;20542;-60
2022/09/16 00:43:49;;;;;;;4.20;2.72;;;;;;;18.90;69.94;99616.50;5029317;28;20403;-60
2022/09/16 00:46:19;;;;;;;5.63;3.65;;;;;;;18.93;70.02;99613.53;5032795;28;20499;-60
2022/09/16 00:48:46;;;;;;;4.10;3.45;;;;;;;18.90;70.03;99605.91;5029608;28;20395;-60
2022/09/16 00:51:15;;;;;;;7.55;3.33;;;;;;;18.88;70.15;99613.22;5033459;28;20036;-60
2022/09/16 00:53:56;;;;;;;7.38;3.45;;;;;;;18.91;69.88;99606.75;5023745;28;20041;-60
2022/09/16 00:56:25;;;;;;;2.92;2.60;;;;;;;18.90;69.97;99616.50;5049359;28;20044;-60
2022/09/16 00:58:54;;;;;;;4.63;3.58;;;;;;;18.86;69.75;99615.22;5029705;28;20034;-60
2022/09/16 01:01:22;;;;;;;3.47;2.78;;;;;;;18.85;69.93;99621.47;5029774;28;20033;-60
2022/09/16 01:03:54;;;;;;;3.25;2.90;;;;;;;18.87;69.66;99624.78;5014525;28;20434;-60
2022/09/16 01:06:23;;;;;;;4.22;3.00;;;;;;;18.85;69.49;99622.28;5042076;28;20391;-60
2022/09/16 01:08:50;;;;;;;3.72;2.97;;;;;;;18.85;69.74;99621.47;5043507;28;20395;-60
2022/09/16 01:11:16;;;;;;;4.30;3.28;;;;;;;18.85;69.54;99618.84;5027329;28;20044;-60
2022/09/16 01:13:46;;;;;;;4.55;2.95;;;;;;;18.86;69.45;99623.97;5030930;28;20056;-60
2022/09/16 01:16:33;;;;;;;3.78;3.05;;;;;;;18.81;69.46;99620.16;5046585;28;20038;-60
2022/09/16 01:19:31;;;;;;;3.45;2.90;;;;;;;18.85;69.24;99626.78;5030929;28;20463;-60
2022/09/16 01:22:26;;;;;;;5.03;3.55;;;;;;;18.86;69.23;99629.25;5031481;28;20048;-60
2022/09/16 01:25:19;;;;;;;5.53;3.58;;;;;;;18.82;69.28;99621.78;5028552;28;20418;-60
2022/09/16 01:28:20;;;;;;;12.07;4.18;;;;;;;18.83;69.38;99618.19;5027034;28;20399;-60
2022/09/16 01:30:57;;;;;;;4.60;2.70;;;;;;;18.84;69.33;99620.66;5037808;28;20040;-60
2022/09/16 01:33:46;;;;;;;4.38;2.88;;;;;;;18.79;69.11;99604.44;5040280;28;20056;-60
2022/09/16 01:36:35;;;;;;;4.45;2.85;;;;;;;18.81;69.33;99612.22;5032641;28;20048;-60
2022/09/16 01:39:41;;;;;;;3.97;3.10;;;;;;;18.80;69.26;99607.91;5018936;28;20041;-60
2022/09/16 01:42:38;;;;;;;3.30;2.63;;;;;;;18.78;69.25;99615.19;5030348;28;20041;-60
2022/09/16 01:45:16;;;;;;;5.72;2.75;;;;;;;18.77;69.09;99621.47;5032128;28;20045;-59
2022/09/16 01:48:16;;;;;;;4.35;3.30;;;;;;;18.77;69.14;99616.16;5008940;28;20030;-60
2022/09/16 01:50:52;;;;;;;4.63;2.85;;;;;;;18.74;68.93;99611.22;5021392;28;20487;-60
2022/09/16 01:53:34;;;;;;;5.20;3.55;;;;;;;18.75;69.04;99618.97;5029422;28;20037;-60
2022/09/16 01:56:27;;;;;;;4.88;2.90;;;;;;;18.73;68.82;99610.41;5022464;28;20037;-60
2022/09/16 01:58:56;;;;;;;6.18;3.35;;;;;;;18.73;68.90;99612.22;5027731;28;20046;-59
2022/09/16 02:01:32;;;;;;;3.60;2.95;;;;;;;18.74;68.90;99617.34;5030698;28;20037;-60
2022/09/16 02:04:05;;;;;;;3.00;2.63;;;;;;;18.71;68.77;99608.94;5032353;28;20040;-59
2022/09/16 02:06:33;;;;;;;4.18;3.15;;;;;;;18.71;68.70;99604.44;5034553;28;20380;-60
2022/09/16 02:09:05;;;;;;;6.38;3.15;;;;;;;18.70;68.46;99602.78;5028456;28;20502;-60
2022/09/16 02:11:36;;;;;;;3.28;2.58;;;;;;;18.66;68.69;99601.50;5032796;28;20113;-60
2022/09/16 02:14:12;;;;;;;4.40;2.90;;;;;;;18.66;68.63;99594.38;5029363;28;20041;-60
2022/09/16 02:16:53;;;;;;;4.32;3.15;;;;;;;18.68;68.46;99580.97;5006446;28;20045;-60
2022/09/16 02:19:29;;;;;;;3.15;2.85;;;;;;;18.68;68.69;99542.13;5026645;28;20042;-60
2022/09/16 02:21:58;;;;;;;3.08;2.78;;;;;;;18.73;68.25;99515.16;5029673;28;20041;-60
2022/09/16 02:24:28;;;;;;;6.22;3.38;;;;;;;18.75;67.83;99530.88;5025501;28;20037;-60
2022/09/16 02:26:59;;;;;;;6.38;3.05;;;;;;;18.73;67.84;99554.03;5028498;28;20045;-60
2022/09/16 02:29:40;;;;;;;3.95;2.55;;;;;;;18.70;67.84;99573.69;5037623;28;20025;-60
2022/09/16 02:32:09;;;;;;;3.28;2.50;;;;;;;18.68;67.83;99575.69;5025332;28;20040;-60
2022/09/16 02:34:40;;;;;;;5.47;3.28;;;;;;;18.66;67.61;99593.56;5035545;28;20480;-60
2022/09/16 02:37:17;;;;;;;3.15;2.72;;;;;;;18.68;67.74;99610.06;5027394;28;20056;-60
2022/09/16 02:39:47;;;;;;;3.88;2.83;;;;;;;18.66;67.73;99620.00;5025604;28;20044;-60
2022/09/16 02:42:14;;;;;;;3.67;2.08;;;;;;;18.66;67.53;99620.81;5037639;28;20044;-60
2022/09/16 02:44:40;;;;;;;3.35;2.53;;;;;;;18.64;67.54;99612.22;5026558;28;20060;-60
2022/09/16 02:47:47;;;;;;;4.47;2.42;;;;;;;18.68;67.66;99612.72;5037083;28;20033;-60
2022/09/16 02:50:26;;;;;;;5.45;2.47;;;;;;;18.68;67.53;99624.13;5029929;28;20048;-60
2022/09/16 02:53:03;;;;;;;3.60;2.53;;;;;;;18.70;67.66;99616.00;5041173;28;20041;-60
2022/09/16 02:55:47;;;;;;;5.22;2.08;;;;;;;18.70;67.62;99610.72;5030084;28;20044;-60
2022/09/16 02:58:13;;;;;;;4.20;2.30;;;;;;;18.66;67.69;99615.53;5028821;28;20036;-60
2022/09/16 03:00:45;;;;;;;21.58;3.60;;;;;;;18.63;67.90;99609.75;5033242;28;20041;-60
2022/09/16 03:03:12;;;;;;;7.57;3.05;;;;;;;18.64;67.54;99617.53;5031781;28;20041;-60
2022/09/16 03:06:20;;;;;;;3.83;2.38;;;;;;;18.64;67.64;99616.72;5033957;28;20064;-60
2022/09/16 03:08:49;;;;;;;4.32;2.42;;;;;;;18.68;67.68;99613.53;5030517;28;20491;-60
2022/09/16 03:11:30;;;;;;;5.75;2.75;;;;;;;18.68;67.46;99608.25;5032621;28;20033;-60
2022/09/16 03:14:12;;;;;;;3.47;2.70;;;;;;;18.65;67.53;99613.91;5047291;28;20049;-60
2022/09/16 03:17:02;;;;;;;3.55;2.25;;;;;;;18.64;67.68;99619.34;5032220;28;20048;-59
2022/09/16 03:19:42;;;;;;;4.53;2.30;;;;;;;18.63;67.46;99617.69;5027224;28;20129;-60
2022/09/16 03:22:33;;;;;;;9.25;2.97;;;;;;;18.63;67.55;99610.56;5030026;28;20049;-60
2022/09/16 03:24:59;;;;;;;5.65;2.53;;;;;;;18.63;67.78;99600.00;5029773;28;20041;-60
2022/09/16 03:27:36;;;;;;;7.45;2.42;;;;;;;18.64;67.89;99596.38;5031604;28;20033;-60
2022/09/16 03:30:06;;;;;;;5.55;2.67;;;;;;;18.65;67.95;99594.53;5006084;28;20048;-60
2022/09/16 03:33:13;;;;;;;7.63;2.78;;;;;;;18.62;67.71;99594.91;5039716;28;20045;-60
2022/09/16 03:35:48;;;;;;;5.38;2.67;;;;;;;18.60;67.71;99588.91;4949668;29;20039;-60
2022/09/16 03:38:17;;;;;;;4.07;2.25;;;;;;;18.63;67.75;99583.31;4934554;28;20039;-60
2022/09/16 03:40:49;;;;;;;4.97;2.28;;;;;;;18.60;67.71;99587.13;5018710;22;20052;-65
2022/09/16 03:43:16;;;;;;;2.88;2.28;;;;;;;18.63;67.88;99585.94;5039951;28;20036;-64
2022/09/16 03:45:43;;;;;;;4.88;2.67;;;;;;;18.62;67.65;99594.91;5038919;28;20045;-64
2022/09/16 03:48:12;;;;;;;4.63;2.20;;;;;;;18.60;67.71;99589.78;5038147;28;20030;-65
2022/09/16 03:50:41;;;;;;;6.88;2.15;;;;;;;18.59;67.59;99590.75;5031127;28;20522;-64
2022/09/16 03:53:12;;;;;;;2.60;1.63;;;;;;;18.60;67.65;99588.91;5030411;28;20056;-65
2022/09/16 03:55:40;;;;;;;2.85;2.10;;;;;;;18.60;67.51;99587.13;5037091;28;20041;-65
2022/09/16 03:58:11;;;;;;;3.28;1.90;;;;;;;18.61;67.50;99586.13;5021682;28;20479;-65
2022/09/16 04:00:37;;;;;;;6.00;2.97;;;;;;;18.60;67.75;99581.84;5039400;28;20041;-65
2022/09/16 04:03:08;;;;;;;5.03;2.97;;;;;;;18.62;67.50;99582.50;4999789;28;20045;-65
2022/09/16 04:05:34;;;;;;;3.88;2.53;;;;;;;18.62;67.42;99582.50;5031779;28;20037;-65
2022/09/16 04:08:00;;;;;;;3.03;2.28;;;;;;;18.62;67.52;99573.72;5042856;28;20420;-64
2022/09/16 04:10:26;;;;;;;3.22;1.92;;;;;;;18.64;67.70;99577.03;5048570;28;20046;-65
2022/09/16 04:13:00;;;;;;;7.43;2.55;;;;;;;18.61;67.89;99572.88;5013309;28;20041;-66
2022/09/16 04:15:28;;;;;;;3.65;2.33;;;;;;;18.59;67.83;99574.88;5030829;28;20040;-64
2022/09/16 04:17:55;;;;;;;4.45;2.30;;;;;;;18.61;67.75;99578.19;5032735;28;20049;-64
2022/09/16 04:20:22;;;;;;;2.42;1.80;;;;;;;18.59;67.96;99574.88;5028928;28;20033;-64
2022/09/16 04:22:48;;;;;;;8.10;2.85;;;;;;;18.60;67.90;99573.06;5012596;28;20522;-70
2022/09/16 04:25:17;;;;;;;7.90;2.50;;;;;;;18.58;68.02;99570.56;5038495;28;20044;-64
2022/09/16 04:27:43;;;;;;;8.15;2.60;;;;;;;18.61;68.11;99580.81;5039442;28;20498;-65
2022/09/16 04:30:15;;;;;;;4.35;1.80;;;;;;;18.62;68.03;99576.38;5032539;28;20072;-64
2022/09/16 04:32:41;;;;;;;2.75;2.20;;;;;;;18.62;68.03;99582.50;5033951;28;20045;-65
2022/09/16 04:35:10;;;;;;;4.32;3.55;;;;;;;18.62;68.30;99581.66;5033870;28;20522;-65
2022/09/16 04:37:36;;;;;;;2.42;2.03;;;;;;;18.59;68.17;99580.16;5033767;28;20495;-64
2022/09/16 04:40:05;;;;;;;3.88;1.80;;;;;;;18.57;68.42;99582.16;5016042;28;20037;-65
2022/09/16 04:42:33;;;;;;;6.40;2.30;;;;;;;18.56;68.39;99572.56;5033741;28;20037;-65
2022/09/16 04:45:02;;;;;;;4.35;2.22;;;;;;;18.57;68.20;99576.88;5033703;28;20395;-64
2022/09/16 04:47:30;;;;;;;5.75;2.35;;;;;;;18.58;68.54;99570.56;5032580;28;20045;-64
2022/09/16 04:49:56;;;;;;;4.88;2.10;;;;;;;18.56;68.30;99577.84;5033056;28;20038;-65
2022/09/16 04:52:23;;;;;;;3.63;2.30;;;;;;;18.54;68.61;99574.56;5032307;28;20037;-65
2022/09/16 04:54:49;;;;;;;3.30;2.13;;;;;;;18.53;68.47;99575.53;5032358;28;20037;-64
2022/09/16 04:57:15;;;;;;;4.25;1.95;;;;;;;18.54;68.68;99571.91;5033468;28;20387;-65
2022/09/16 04:59:41;;;;;;;2.72;1.90;;;;;;;18.57;68.42;99584.00;5031869;28;20511;-65
2022/09/16 05:02:07;;;;;;;4.82;2.05;;;;;;;18.55;68.38;99567.44;5033476;28;20037;-65
2022/09/16 05:04:35;;;;;;;5.60;2.45;;;;;;;18.56;68.64;99575.22;5033221;28;20029;-65
2022/09/16 05:07:04;;;;;;;5.30;2.33;;;;;;;18.58;68.57;99575.88;5033340;28;20033;-65
2022/09/16 05:09:30;;;;;;;4.53;1.88;;;;;;;18.58;68.70;99575.88;5031821;28;20141;-65
2022/09/16 05:11:58;;;;;;;4.80;2.38;;;;;;;18.58;68.68;99575.88;5033518;28;20033;-65
2022/09/16 05:14:29;;;;;;;4.15;2.03;;;;;;;18.55;68.84;99576.22;5030796;28;20084;-65
2022/09/16 05:16:57;;;;;;;6.85;2.42;;;;;;;18.56;68.54;99571.75;5033601;28;20044;-64
2022/09/16 05:19:24;;;;;;;4.13;2.05;;;;;;;18.56;68.68;99577.84;5032627;28;20053;-65
2022/09/16 05:21:50;;;;;;;4.90;2.22;;;;;;;18.53;68.66;99570.25;5033021;28;20037;-65
2022/09/16 05:24:21;;;;;;;3.08;2.53;;;;;;;18.54;68.50;99561.34;5032965;28;20038;-64
2022/09/16 05:26:47;;;;;;;4.05;2.97;;;;;;;18.56;68.65;99569.94;5031710;28;20033;-65
2022/09/16 05:29:16;;;;;;;2.83;1.70;;;;;;;18.56;68.78;99567.28;5032720;28;20025;-64
2022/09/16 05:31:46;;;;;;;3.88;2.08;;;;;;;18.55;68.65;99570.94;5048188;28;20037;-65
2022/09/16 05:34:20;;;;;;;4.22;1.95;;;;;;;18.56;68.68;99572.56;5031635;28;20125;-65
2022/09/16 05:36:47;;;;;;;4.28;2.20;;;;;;;18.55;68.85;99578.03;5032836;28;20037;-65
2022/09/16 05:39:17;;;;;;;2.97;2.55;;;;;;;18.53;68.68;99585.31;5032271;28;20037;-65
2022/09/16 05:41:47;;;;;;;4.28;3.03;;;;;;;18.51;68.78;99577.53;5031517;28;20048;-65
2022/09/16 05:44:13;;;;;;;3.08;2.30;;;;;;;18.54;68.94;99573.75;5032608;28;20482;-65
2022/09/16 05:46:47;;;;;;;6.63;2.30;;;;;;;18.55;68.61;99575.38;5032640;28;20037;-65
2022/09/16 05:49:14;;;;;;;4.13;2.10;;;;;;;18.56;68.82;99577.84;5032359;28;20052;-65
2022/09/16 05:51:42;;;;;;;3.38;2.28;;;;;;;18.56;68.93;99583.16;5031234;28;20037;-65
2022/09/16 05:54:08;;;;;;;3.22;2.60;;;;;;;18.55;68.94;99578.88;5032557;28;20402;-65
2022/09/16 05:56:35;;;;;;;4.22;2.10;;;;;;;18.55;68.95;99584.16;5032282;28;20391;-64
2022/09/16 05:59:05;;;;;;;4.63;2.55;;;;;;;18.56;68.92;99579.69;5014897;28;20037;-64
2022/09/16 06:01:34;;;;;;;3.20;2.10;;;;;;;18.54;69.14;99579.84;5031214;28;20312;-65
2022/09/16 06:04:04;;;;;;;4.57;2.35;;;;;;;18.55;69.04;99573.59;5031136;28;20042;-65
2022/09/16 06:06:36;;;;;;;4.90;1.90;;;;;;;18.56;69.05;99583.16;5014618;28;20037;-65
2022/09/16 06:09:10;;;;;;;5.80;2.17;;;;;;;18.55;69.14;99584.16;5030815;28;20037;-65
2022/09/16 06:11:42;;;;;;;7.15;2.50;;;;;;;18.54;68.95;99587.78;5030957;28;20387;-65
2022/09/16 06:14:14;;;;;;;2.60;2.00;;;;;;;18.54;68.88;99587.78;5031050;28;20037;-65
2022/09/16 06:16:41;;;;;;;2.67;2.40;;;;;;;18.55;69.06;99586.81;5014440;28;20391;-65
2022/09/16 06:19:17;;;;;;;6.03;2.53;;;;;;;18.56;68.98;99587.63;5032441;28;20042;-65
2022/09/16 06:21:46;;;;;;;4.18;2.45;;;;;;;18.55;69.01;99591.25;5023415;28;20272;-65
2022/09/16 06:24:14;;;;;;;3.08;2.25;;;;;;;18.58;68.91;99591.72;5010802;28;20057;-65
2022/09/16 06:26:44;;;;;;;3.45;2.42;;;;;;;18.60;68.73;99594.22;5011034;28;20038;-65
2022/09/16 06:29:10;;;;;;;3.30;2.50;;;;;;;18.61;68.59;99590.59;4994412;28;20034;-65
2022/09/16 06:31:37;;;;;;;4.57;2.10;;;;;;;18.63;68.48;99592.06;5010990;28;20034;-65
2022/09/16 06:34:05;;;;;;;5.50;2.20;;;;;;;18.66;68.52;99581.13;5010936;28;20046;-65
2022/09/16 06:36:38;;;;;;;3.90;2.45;;;;;;;18.64;68.43;99585.78;4994861;28;20052;-65
2022/09/16 06:39:05;;;;;;;5.47;2.13;;;;;;;18.64;68.68;99588.44;5010612;28;20038;-65
2022/09/16 06:41:33;;;;;;;4.13;2.42;;;;;;;18.64;68.79;99580.50;5012000;28;20041;-65
2022/09/16 06:43:59;;;;;;;5.90;2.35;;;;;;;18.63;68.74;99578.81;5011030;28;20145;-65
2022/09/16 06:46:27;;;;;;;2.92;2.63;;;;;;;18.67;68.56;99580.16;5010797;28;20045;-65
2022/09/16 06:48:57;;;;;;;11.38;2.50;;;;;;;18.67;68.90;99582.81;5010782;28;20036;-65
2022/09/16 06:51:28;;;;;;;6.85;2.55;;;;;;;18.64;68.70;99580.50;5010677;28;20408;-65
2022/09/16 06:53:59;;;;;;;4.47;2.80;;;;;;;18.64;68.61;99583.13;5010698;28;20377;-65
2022/09/16 06:56:28;;;;;;;3.65;2.10;;;;;;;18.66;68.74;99578.50;5010712;28;20033;-65
2022/09/16 06:58:57;;;;;;;4.50;3.17;;;;;;;18.69;68.75;99577.34;4994316;28;20049;-65
2022/09/16 07:01:31;;;;;;;4.07;2.45;;;;;;;18.72;68.43;99587.59;4994125;28;20404;-65
2022/09/16 07:04:07;;;;;;;4.57;2.47;;;;;;;18.88;68.31;99582.28;5010765;28;20033;-65
2022/09/16 07:06:35;;;;;;;2.78;2.35;;;;;;;18.96;67.91;99584.09;4994617;28;20037;-65
2022/09/16 07:09:06;;;;;;;2.65;2.00;;;;;;;18.89;67.94;99585.75;5010545;28;20392;-65
2022/09/16 07:11:32;;;;;;;4.22;2.65;;;;;;;18.84;68.09;99583.63;5010469;28;20038;-65
2022/09/16 07:14:01;;;;;;;2.70;2.25;;;;;;;18.93;68.13;99589.72;5010862;28;20391;-65
2022/09/16 07:16:27;;;;;;;5.20;2.45;;;;;;;19.25;67.36;99588.75;4977869;28;20041;-65
2022/09/16 07:18:59;;;;;;;7.93;4.30;;;;;;;20.24;63.92;99598.75;4993870;28;20052;-65
2022/09/16 07:21:28;;;;;;;3.78;2.60;;;;;;;20.84;61.73;99594.38;4998643;28;20048;-65
2022/09/16 07:23:57;;;;;;;3.20;2.30;;;;;;;21.11;61.08;99594.72;5030028;28;20048;-65
2022/09/16 07:26:27;;;;;;;6.65;2.55;;;;;;;21.74;58.78;99604.88;5046166;28;20038;-65
2022/09/16 07:29:02;;;;;;;2.70;2.08;;;;;;;20.42;62.26;99590.47;5029893;28;20483;-65
2022/09/16 07:31:31;;;;;;;3.05;2.53;;;;;;;19.61;64.90;99592.72;5029732;28;20041;-65
2022/09/16 07:34:01;;;;;;;2.17;1.98;;;;;;;19.15;66.55;99584.69;5029943;28;20029;-65
2022/09/16 07:36:29;;;;;;;5.32;2.58;;;;;;;19.09;67.16;99588.81;5031410;28;20037;-65
2022/09/16 07:38:57;;;;;;;5.05;3.05;;;;;;;19.04;67.11;99589.31;5016831;28;20042;-65
2022/09/16 07:41:28;;;;;;;3.58;2.20;;;;;;;18.96;67.82;99586.72;5033263;28;20036;-65
2022/09/16 07:43:57;;;;;;;3.47;2.17;;;;;;;18.92;67.78;99582.75;5033429;28;20402;-65
2022/09/16 07:46:27;;;;;;;2.92;2.10;;;;;;;18.88;67.52;99584.91;5016781;28;20348;-65
2022/09/16 07:48:54;;;;;;;2.95;2.17;;;;;;;18.86;67.64;99592.22;5033441;28;20316;-65
2022/09/16 07:51:27;;;;;;;4.43;2.90;;;;;;;18.88;67.70;99589.41;5034226;28;20037;-65
2022/09/16 07:53:57;;;;;;;7.20;2.60;;;;;;;18.89;67.74;99588.38;5034497;28;20037;-65
2022/09/16 07:56:30;;;;;;;5.13;3.63;;;;;;;18.85;67.78;99593.19;5016941;28;20351;-65
2022/09/16 07:58:59;;;;;;;6.28;2.75;;;;;;;18.82;67.96;99590.91;5034341;28;20042;-65
2022/09/16 08:01:26;;;;;;;6.20;2.28;;;;;;;18.79;67.93;99593.84;5034138;28;20048;-65
2022/09/16 08:03:54;;;;;;;5.18;3.33;;;;;;;18.83;67.76;99595.19;5034231;28;20375;-65
2022/09/16 08:06:26;;;;;;;3.30;2.20;;;;;;;18.88;67.75;99590.22;5034145;28;20431;-65
2022/09/16 08:08:58;;;;;;;2.72;2.50;;;;;;;18.86;67.92;99596.69;5034176;28;20029;-65
2022/09/16 08:11:32;;;;;;;4.15;2.47;;;;;;;18.89;68.03;99596.31;5049617;28;20037;-65
2022/09/16 08:14:01;;;;;;;4.72;2.95;;;;;;;18.88;67.88;99590.22;5032923;28;20041;-65
2022/09/16 08:16:27;;;;;;;4.05;2.97;;;;;;;18.91;67.74;99599.66;5033957;28;20527;-65
2022/09/16 08:18:57;;;;;;;5.57;2.53;;;;;;;18.88;68.07;99592.03;5032822;28;20068;-65
2022/09/16 08:21:28;;;;;;;8.80;3.92;;;;;;;18.83;68.29;99591.72;5027865;28;20040;-65
2022/09/16 08:23:56;;;;;;;5.47;3.40;;;;;;;18.86;68.12;99604.63;5013786;28;20052;-65
2022/09/16 08:26:25;;;;;;;5.60;3.08;;;;;;;18.82;68.17;99600.63;4996907;28;20400;-65
2022/09/16 08:28:54;;;;;;;5.13;3.22;;;;;;;18.75;68.34;99597.00;5013975;28;20034;-64
2022/09/16 08:31:23;;;;;;;7.63;2.90;;;;;;;18.75;68.39;99607.59;5012424;28;20068;-65
2022/09/16 08:33:52;;;;;;;3.17;2.35;;;;;;;18.79;68.48;99611.53;5012649;28;20052;-65
2022/09/16 08:36:21;;;;;;;6.28;3.08;;;;;;;18.78;68.22;99601.97;5012549;28;20053;-64
2022/09/16 08:38:52;;;;;;;5.53;3.85;;;;;;;18.73;68.36;99604.28;5012537;28;20396;-65
2022/09/16 08:41:36;;;;;;;5.15;3.55;;;;;;;18.74;68.24;99601.47;4995776;28;20042;-65
2022/09/16 08:44:27;;;;;;;8.40;3.03;;;;;;;18.74;68.30;99600.63;4980066;28;20054;-65
2022/09/16 08:46:53;;;;;;;3.00;2.42;;;;;;;18.71;68.41;99609.75;5012437;28;20048;-65
2022/09/16 08:49:40;;;;;;;7.10;2.95;;;;;;;18.68;68.36;99618.81;4980094;28;20045;-65
2022/09/16 08:52:23;;;;;;;3.60;2.75;;;;;;;18.70;68.37;99621.31;4996128;28;20042;-65
2022/09/16 08:54:59;;;;;;;5.45;3.22;;;;;;;18.75;67.91;99615.53;5013660;28;20044;-65
2022/09/16 08:57:31;;;;;;;3.97;2.67;;;;;;;18.77;67.91;99617.00;5013374;28;20484;-65
2022/09/16 09:00:20;;;;;;;4.18;3.10;;;;;;;18.76;67.82;99611.91;5013012;28;20402;-65
2022/09/16 09:03:15;;;;;;;2.65;2.42;;;;;;;18.77;67.88;99610.88;5013421;28;20045;-65
2022/09/16 09:05:56;;;;;;;3.45;2.35;;;;;;;18.72;67.66;99614.06;5013397;28;20395;-65
2022/09/16 09:08:30;;;;;;;6.60;3.58;;;;;;;18.76;67.46;99615.34;5013134;28;20034;-65
2022/09/16 09:11:39;;;;;;;4.57;2.63;;;;;;;18.70;67.14;99618.66;5011929;28;20148;-65
2022/09/16 09:14:19;;;;;;;4.63;2.40;;;;;;;18.74;67.03;99612.06;5013179;28;20045;-65
2022/09/16 09:17:09;;;;;;;4.72;3.10;;;;;;;18.73;66.78;99620.16;5013500;28;20045;-65
2022/09/16 09:19:54;;;;;;;4.20;2.20;;;;;;;18.79;66.55;99619.47;5029018;22;20049;-65
2022/09/16 09:22:53;;;;;;;6.60;3.13;;;;;;;18.77;66.58;99616.16;5018745;28;20051;-65
2022/09/16 09:25:38;;;;;;;4.50;2.42;;;;;;;18.79;66.43;99616.81;5034940;28;20044;-65
2022/09/16 09:28:12;;;;;;;3.83;2.25;;;;;;;18.81;66.44;99618.31;5052560;28;20482;-65
2022/09/16 09:30:55;;;;;;;2.95;2.50;;;;;;;18.81;66.08;99615.66;5034398;28;20033;-65
2022/09/16 09:33:30;;;;;;;4.25;2.38;;;;;;;18.78;65.85;99613.34;5034579;28;20033;-65
2022/09/16 09:36:15;;;;;;;5.28;2.42;;;;;;;18.85;65.54;99609.06;5018292;28;20398;-65
2022/09/16 09:39:00;;;;;;;3.05;2.47;;;;;;;18.84;65.37;99607.44;5018355;28;20041;-65
2022/09/16 09:41:36;;;;;;;3.70;2.65;;;;;;;18.88;64.99;99613.22;5048533;23;20045;-59
2022/09/16 09:44:27;;;;;;;3.60;2.08;;;;;;;18.83;65.15;99616.34;5034576;28;20040;-60
2022/09/16 09:47:04;;;;;;;4.35;2.33;;;;;;;18.90;64.59;99605.91;5018005;28;20041;-60
2022/09/16 09:49:45;;;;;;;3.75;1.98;;;;;;;19.05;64.29;99609.50;5051995;28;20482;-59
2022/09/16 09:52:23;;;;;;;3.88;3.03;;;;;;;19.00;63.81;99611.84;5052237;28;20040;-59
2022/09/16 09:54:51;;;;;;;3.88;2.20;;;;;;;18.93;63.79;99623.28;5052306;28;20052;-60
2022/09/16 09:57:28;;;;;;;2.92;2.42;;;;;;;19.03;63.25;99621.28;5018230;28;20032;-59
2022/09/16 10:00:00;;;;;;;3.45;2.17;;;;;;;19.13;62.23;99615.78;5050239;28;20513;-59
2022/09/16 10:02:26;;;;;;;2.85;1.90;;;;;;;19.19;61.51;99613.25;5051901;28;20108;-59
2022/09/16 10:04:53;;;;;;;4.60;1.95;;;;;;;19.15;61.52;99605.84;5052043;28;20052;-60
2022/09/16 10:07:22;;;;;;;4.15;2.60;;;;;;;19.23;60.59;99606.66;5051781;28;20029;-60
2022/09/16 10:09:55;;;;;;;1.90;1.70;;;;;;;19.29;60.07;99607.78;5051666;28;20029;-59
2022/09/16 10:12:35;;;;;;;3.22;1.98;;;;;;;19.20;59.84;99603.53;5051994;28;20044;-59
2022/09/16 10:15:01;;;;;;;2.22;1.92;;;;;;;19.28;59.91;99607.94;5051893;28;20391;-60
2022/09/16 10:17:30;;;;;;;2.38;1.60;;;;;;;19.14;59.29;99599.72;5051980;28;20045;-59
2022/09/16 10:20:19;;;;;;;2.75;1.88;;;;;;;19.18;59.60;99608.13;5051728;28;20044;-60
2022/09/16 10:23:09;;;;;;;3.88;1.90;;;;;;;19.10;59.55;99603.72;5040845;28;20513;-59
2022/09/16 10:25:36;;;;;;;2.85;1.80;;;;;;;19.09;58.79;99606.53;5026291;28;20037;-60
2022/09/16 10:28:05;;;;;;;2.80;2.15;;;;;;;19.05;59.04;99608.69;5023102;28;20032;-60
2022/09/16 10:30:43;;;;;;;4.10;1.45;;;;;;;19.02;58.54;99607.19;5033391;28;20037;-60
2022/09/16 10:33:19;;;;;;;5.13;2.13;;;;;;;19.09;58.93;99611.81;5028838;28;20486;-60
2022/09/16 10:36:07;;;;;;;2.20;1.98;;;;;;;19.18;58.51;99606.34;5013626;28;20064;-60
2022/09/16 10:38:46;;;;;;;3.90;2.10;;;;;;;19.16;58.62;99600.38;5027756;28;20037;-61
2022/09/16 10:41:21;;;;;;;3.03;1.23;;;;;;;19.27;58.51;99606.28;5047110;28;20040;-60
2022/09/16 10:43:55;;;;;;;2.72;1.95;;;;;;;19.27;58.39;99600.97;5039218;28;20036;-59
2022/09/16 10:46:21;;;;;;;2.47;1.65;;;;;;;19.24;58.66;99605.63;5021657;28;20037;-60
2022/09/16 10:48:50;;;;;;;2.33;1.45;;;;;;;19.21;58.61;99595.38;5039996;28;20044;-60
2022/09/16 10:51:21;;;;;;;3.25;1.80;;;;;;;19.13;58.39;99594.59;5001399;28;20033;-59
2022/09/16 10:53:53;;;;;;;3.28;1.52;;;;;;;19.14;58.68;99596.25;5029684;28;20049;-60
2022/09/16 10:56:28;;;;;;;2.45;1.80;;;;;;;19.20;58.01;99595.56;5000602;28;20474;-60
2022/09/16 10:59:08;;;;;;;5.50;2.05;;;;;;;19.21;57.57;99594.56;5042001;28;20413;-60
2022/09/16 11:01:53;;;;;;;3.45;1.42;;;;;;;19.21;57.12;99592.72;5013625;28;20037;-60
2022/09/16 11:04:43;;;;;;;2.65;1.40;;;;;;;19.36;57.24;99597.31;5047862;28;20040;-59
2022/09/16 11:07:34;;;;;;;2.50;1.70;;;;;;;19.29;56.46;99605.13;5025347;28;20029;-59
2022/09/16 11:10:22;;;;;;;3.10;1.58;;;;;;;19.32;56.56;99599.50;5016089;28;20033;-60
2022/09/16 11:13:00;;;;;;;4.28;1.95;;;;;;;19.30;55.59;99598.84;5029169;28;20041;-60
2022/09/16 11:15:47;;;;;;;3.55;1.65;;;;;;;19.32;56.55;99603.94;5045039;28;20048;-60
2022/09/16 11:18:27;;;;;;;5.30;1.83;;;;;;;19.33;55.53;99590.53;5044552;28;20033;-60
2022/09/16 11:21:34;;;;;;;1.90;1.35;;;;;;;19.31;55.37;99600.47;5050130;28;20041;-60
2022/09/16 11:24:32;;;;;;;1.80;1.15;;;;;;;19.31;55.06;99594.34;5025450;28;20041;-60
2022/09/16 11:27:27;;;;;;;2.47;1.00;;;;;;;19.34;55.17;99594.03;5032044;28;20056;-60
2022/09/16 11:30:06;;;;;;;3.72;1.67;;;;;;;19.44;56.25;99595.44;5039203;28;20479;-60
2022/09/16 11:32:38;;;;;;;6.95;1.40;;;;;;;19.45;55.82;99596.25;5025628;28;20048;-60
2022/09/16 11:35:16;;;;;;;1.70;1.60;;;;;;;19.47;55.56;99601.38;5042255;28;20147;-60
2022/09/16 11:37:56;;;;;;;1.70;1.35;;;;;;;19.48;55.53;99597.75;5044608;28;20776;-60
2022/09/16 11:40:33;;;;;;;2.65;1.90;;;;;;;19.50;55.16;99588.63;5038839;28;20483;-60
2022/09/16 11:43:14;;;;;;;2.63;1.60;;;;;;;19.47;54.93;99590.78;5046757;28;20051;-60
2022/09/16 11:46:05;;;;;;;5.90;1.27;;;;;;;19.40;54.78;99586.22;5050567;28;20040;-60
2022/09/16 11:48:37;;;;;;;1.88;1.42;;;;;;;19.40;55.11;99586.22;5007002;28;20046;-60
2022/09/16 11:51:59;;;;;;;4.47;1.10;;;;;;;19.35;54.93;99585.06;5031304;28;20398;-60
2022/09/16 11:55:02;;;;;;;1.85;1.35;;;;;;;19.34;54.78;99575.50;4980059;28;20053;-60
2022/09/16 11:57:35;;;;;;;7.97;1.35;;;;;;;19.29;54.43;99578.66;5028181;28;20041;-60
2022/09/16 12:00:15;;;;;;;3.78;1.30;;;;;;;19.31;54.88;99575.81;5049500;28;20040;-60
2022/09/16 12:02:53;;;;;;;1.58;1.08;;;;;;;19.33;55.25;99576.47;5036888;28;20037;-60
2022/09/16 12:05:29;;;;;;;4.82;1.35;;;;;;;19.35;55.64;99577.13;5043829;28;20104;-60
2022/09/16 12:08:13;;;;;;;1.98;1.35;;;;;;;19.36;55.93;99570.84;5043342;28;20056;-60